City of Colorado Springs Municipal Airport
KCOS : now visible

Airfield :











YOU CAN JOIN US ON...

 
LOGIN :

Register | Disclaimer

   EN    FR    IT 

 









Legend :    VFR   Marginal VFR   IFR   Intensive IFR   Very Intensive IFR
Visi :
Ceiling :
>= 8 km
>= 3000ft
5 to 8 km
1000 to 3000 ft
1500m to 5 km
500 to 1000 ft
800 to 1500m
200 to 500 ft
< 800m
< 200 ft
Symbols :   Thunderstorms  Fog  Heavy snow  Heavy precipitations  Wind > 20 kt






- Airport Elevation : 6187 ft
- IATA code : COS


KCOS - City of Colorado Springs Municipal

CURRENT METAR :
  • 221054Z 01017KT 10SM SCT070 BKN085 04/M07 A2982 RMK AO2 SLP096 T00391067

EXPIRED METARs :
  • 220954Z 01012KT 10SM SCT090 03/M06 A2982 RMK AO2 SLP097 T00281061
  • 220854Z 02013KT 10SM FEW080 BKN100 05/M06 A2980 RMK AO2 SLP088 T00501061 55001

TAF KCOS
Valid from the 22 at 12:00 until the 23 at 12:00 UTC


221129Z 2212/2312 02013KT P6SM SCT070 BKN080
FM221700 34015G25KT P6SM BKN100
FM222300 35012KT P6SM BKN090
FM230500 35010KT P6SM FEW200



MET'MAP, your aeronautical weather chart ! - Copyright ORBIFLY December 2007 - Disclaimer

ORBIFLY MET'MAP TEAM :

Programming & Development : Alexandra Zaïnal
Concept & original design : Baudouin d'Aumeries
Assistance for programming : Marc-Olivier Méhu
Technical & hardware support : Manuel Goepfert

Contact : metmap@orbifly.com




SOURCES & CREDITS :

   NOAA       Earth
Advisory